createdAt,value
2023-04-04T00:00:30.186Z,58.80
2023-04-04T00:02:57.538Z,58.50
2023-04-04T00:05:24.740Z,58.50
2023-04-04T00:07:52.130Z,59.10
2023-04-04T00:10:19.267Z,59.40
2023-04-04T00:12:46.676Z,59.60
2023-04-04T00:15:13.893Z,60.00
2023-04-04T00:17:41.048Z,60.10
2023-04-04T00:20:08.718Z,60.90
2023-04-04T00:22:35.895Z,60.40
2023-04-04T00:25:03.182Z,60.90
2023-04-04T00:27:30.534Z,61.40
2023-04-04T00:29:57.713Z,61.60
2023-04-04T00:32:24.926Z,61.80
2023-04-04T00:34:53.853Z,62.40
2023-04-04T00:37:21.486Z,61.70
2023-04-04T00:39:48.844Z,61.10
2023-04-04T00:42:16.030Z,61.00
2023-04-04T00:44:43.379Z,61.00
2023-04-04T00:47:10.562Z,62.00
2023-04-04T00:49:37.781Z,61.90
2023-04-04T00:52:05.467Z,62.20
2023-04-04T00:54:32.713Z,62.60
2023-04-04T00:57:01.585Z,62.80
2023-04-04T00:59:29.388Z,63.20
2023-04-04T01:01:56.853Z,64.00
2023-04-04T01:04:24.230Z,64.00
2023-04-04T01:06:51.698Z,63.90
2023-04-04T01:09:19.415Z,64.70
2023-04-04T01:11:46.939Z,65.10
2023-04-04T01:14:14.855Z,64.70
2023-04-04T01:16:47.961Z,64.60
2023-04-04T01:19:40.705Z,65.20
2023-04-04T01:22:09.497Z,65.00
2023-04-04T01:24:38.174Z,64.90
2023-04-04T01:27:05.322Z,65.90
2023-04-04T01:29:32.458Z,66.40
2023-04-04T01:32:16.130Z,66.00
2023-04-04T01:34:57.093Z,66.10
2023-04-04T01:38:15.812Z,66.80
2023-04-04T01:40:55.313Z,67.20
2023-04-04T01:43:22.536Z,66.90
2023-04-04T01:45:50.037Z,67.50
2023-04-04T01:48:18.354Z,68.00
2023-04-04T01:50:54.658Z,67.80
2023-04-04T01:53:22.116Z,67.90
2023-04-04T01:55:49.324Z,68.50
2023-04-04T01:58:16.612Z,68.90
2023-04-04T02:00:43.799Z,69.60
2023-04-04T02:03:10.928Z,70.00
2023-04-04T02:05:38.093Z,69.90
2023-04-04T02:08:05.612Z,69.60
2023-04-04T02:10:33.001Z,69.80
2023-04-04T02:13:00.202Z,70.50
2023-04-04T02:15:28.182Z,70.80
2023-04-04T02:17:55.493Z,71.60
2023-04-04T02:20:22.948Z,70.90
2023-04-04T02:22:57.138Z,71.20
2023-04-04T02:25:25.884Z,71.60
2023-04-04T02:27:53.429Z,71.90
2023-04-04T02:30:20.575Z,71.90
2023-04-04T02:32:47.858Z,72.40
2023-04-04T02:35:15.539Z,72.50
2023-04-04T02:37:45.732Z,72.80
2023-04-04T02:42:48.386Z,72.60
2023-04-04T02:45:15.705Z,73.00
2023-04-04T02:47:49.746Z,73.20
2023-04-04T02:50:17.409Z,73.10
2023-04-04T03:14:54.292Z,74.30
2023-04-04T03:17:21.562Z,75.00
2023-04-04T03:19:48.747Z,75.30
2023-04-04T03:22:16.176Z,75.60
2023-04-04T03:24:48.155Z,76.40
2023-04-04T03:27:18.608Z,76.40
2023-04-04T03:29:45.790Z,76.80
2023-04-04T03:32:12.972Z,77.00
2023-04-04T03:34:40.329Z,76.80
2023-04-04T03:37:07.508Z,76.70
2023-04-04T03:39:34.733Z,77.30
2023-04-04T03:42:02.175Z,77.20
2023-04-04T03:44:29.332Z,77.00
2023-04-04T03:46:56.494Z,77.90
2023-04-04T03:49:23.704Z,77.90
2023-04-04T03:51:50.979Z,78.20
2023-04-04T03:54:18.157Z,78.10
2023-04-04T03:56:45.447Z,78.50
2023-04-04T03:59:12.922Z,78.30
2023-04-04T04:01:41.185Z,78.50
2023-04-04T04:04:08.420Z,79.00
2023-04-04T04:06:35.675Z,79.20
2023-04-04T04:09:03.044Z,79.10
2023-04-04T04:11:30.928Z,79.20
2023-04-04T04:13:58.121Z,79.60
2023-04-04T04:16:25.249Z,79.90
2023-04-04T04:18:52.592Z,79.10
2023-04-04T04:21:19.785Z,79.70
2023-04-04T04:23:47.016Z,79.30
2023-04-04T04:26:14.519Z,98.60
2023-04-04T04:28:41.697Z,98.50
2023-04-04T04:31:10.351Z,98.00
2023-04-04T04:38:34.982Z,94.70
2023-04-04T04:41:02.152Z,95.20
2023-04-04T04:43:29.427Z,95.60
2023-04-04T04:45:56.861Z,95.90
2023-04-04T05:52:29.162Z,99.90
2023-04-04T05:54:56.246Z,99.90
2023-04-04T05:57:24.298Z,99.90
2023-04-04T05:59:52.661Z,99.90
2023-04-04T06:02:19.875Z,99.90
2023-04-04T06:04:47.197Z,99.90
2023-04-04T06:07:14.505Z,99.90
2023-04-04T06:09:42.629Z,99.90
2023-04-04T06:14:38.209Z,99.90
2023-04-04T06:17:06.423Z,99.90
2023-04-04T06:22:04.366Z,99.90
2023-04-04T06:24:31.570Z,99.90
2023-04-04T06:26:58.733Z,99.90
2023-04-04T07:33:31.268Z,95.00
2023-04-04T07:38:28.083Z,94.10
2023-04-04T07:40:55.553Z,93.60
2023-04-04T07:43:22.763Z,94.50
2023-04-04T07:45:50.020Z,95.00
2023-04-04T08:05:30.821Z,94.00
2023-04-04T08:10:25.656Z,54.60
2023-04-04T08:12:52.941Z,55.20
2023-04-04T08:15:20.098Z,53.80
2023-04-04T08:17:47.287Z,53.60
2023-04-04T08:20:14.528Z,52.50
2023-04-04T08:22:43.026Z,53.90
2023-04-04T08:25:10.837Z,54.60
2023-04-04T08:27:40.856Z,54.60
2023-04-04T08:30:08.831Z,54.20
2023-04-04T08:32:36.313Z,53.30
2023-04-04T08:35:04.284Z,53.60
2023-04-04T08:37:31.622Z,53.50
2023-04-04T08:39:59.259Z,53.50
2023-04-04T08:42:30.270Z,53.10
2023-04-04T08:45:02.855Z,52.40
2023-04-04T08:47:35.759Z,52.30
2023-04-04T08:50:07.944Z,50.90
2023-04-04T08:52:37.104Z,51.20
2023-04-04T08:55:09.131Z,48.90
2023-04-04T08:57:36.332Z,49.10
2023-04-04T09:00:03.815Z,48.60
2023-04-04T09:02:50.359Z,49.80
2023-04-04T09:05:18.505Z,49.80
2023-04-04T09:07:46.447Z,47.80
2023-04-04T09:10:13.640Z,47.50
2023-04-04T09:12:46.785Z,48.40
2023-04-04T09:15:15.245Z,48.70
2023-04-04T09:17:42.564Z,47.70
2023-04-04T09:20:38.882Z,44.80
2023-04-04T09:23:12.667Z,46.60
2023-04-04T09:28:24.373Z,44.90
2023-04-04T09:30:52.928Z,46.50
2023-04-04T09:33:26.313Z,44.10
2023-04-04T09:36:08.264Z,43.60
2023-04-04T09:38:40.200Z,41.20
2023-04-04T09:41:08.651Z,41.30
2023-04-04T09:43:36.027Z,44.20
2023-04-04T09:46:04.276Z,40.60
2023-04-04T09:48:33.953Z,39.90
2023-04-04T09:51:06.539Z,40.00
2023-04-04T09:53:39.273Z,38.50
2023-04-04T09:56:07.440Z,38.10
2023-04-04T09:58:35.304Z,37.70
2023-04-04T10:01:08.181Z,36.90
2023-04-04T10:03:37.852Z,37.30
2023-04-04T10:06:07.903Z,37.60
2023-04-04T10:08:39.450Z,37.20
2023-04-04T10:11:12.006Z,37.50
2023-04-04T10:13:41.121Z,36.80
2023-04-04T10:16:08.977Z,39.20
2023-04-04T10:18:37.373Z,40.50
2023-04-04T10:23:37.900Z,39.00
2023-04-04T10:26:05.122Z,37.30
2023-04-04T10:28:33.552Z,37.00
2023-04-04T10:31:27.026Z,37.20
2023-04-04T10:34:20.491Z,35.30
2023-04-04T10:36:58.135Z,35.60
2023-04-04T10:39:43.567Z,42.80
2023-04-04T10:42:15.393Z,33.80
2023-04-04T10:44:45.391Z,33.30
2023-04-04T10:47:19.237Z,30.70
2023-04-04T10:49:48.437Z,29.30
2023-04-04T10:52:20.816Z,29.30
2023-04-04T10:54:54.523Z,28.90
2023-04-04T10:57:22.692Z,29.30
2023-04-04T11:00:11.396Z,29.60
2023-04-04T11:02:53.369Z,29.00
2023-04-04T11:05:35.995Z,28.00
2023-04-04T11:08:09.606Z,26.60
2023-04-04T11:10:39.542Z,25.90
2023-04-04T11:13:33.092Z,25.50
2023-04-04T11:16:18.173Z,24.70
2023-04-04T11:18:48.180Z,26.20
2023-04-04T11:21:18.339Z,24.10
2023-04-04T11:23:48.788Z,25.60
2023-04-04T11:26:26.006Z,25.80
2023-04-04T11:29:00.440Z,24.90
2023-04-04T11:31:39.050Z,22.20
2023-04-04T11:34:11.826Z,23.40
2023-04-04T11:36:38.998Z,23.70
2023-04-04T11:39:29.830Z,23.00
2023-04-04T11:42:14.079Z,23.70
2023-04-04T11:45:02.962Z,24.40
2023-04-04T11:47:31.158Z,24.10
2023-04-04T11:50:08.084Z,21.70
2023-04-04T11:52:35.421Z,23.10
2023-04-04T11:55:02.739Z,23.50
2023-04-04T11:57:30.647Z,23.20
2023-04-04T11:59:58.679Z,23.60
2023-04-04T12:02:27.693Z,21.50
2023-04-04T12:04:56.062Z,22.60
2023-04-04T12:07:24.794Z,22.70
2023-04-04T12:09:52.690Z,24.00
2023-04-04T12:12:20.127Z,23.60
2023-04-04T12:14:47.438Z,23.30
2023-04-04T12:17:16.612Z,25.10
2023-04-04T12:19:44.296Z,25.50
2023-04-04T12:22:11.473Z,26.80
2023-04-04T12:24:39.001Z,27.10
2023-04-04T12:27:07.427Z,26.40
2023-04-04T12:29:36.316Z,25.80
2023-04-04T12:32:05.957Z,26.30
2023-04-04T12:34:35.622Z,26.00
2023-04-04T12:37:04.426Z,25.10
2023-04-04T12:39:31.914Z,25.20
2023-04-04T12:42:02.636Z,23.40
2023-04-04T12:44:33.649Z,23.60
2023-04-04T12:47:07.492Z,26.20
2023-04-04T12:49:44.801Z,27.50
2023-04-04T12:52:30.382Z,23.60
2023-04-04T12:55:09.905Z,27.20
2023-04-04T12:57:39.980Z,26.00
2023-04-04T13:00:09.599Z,27.80
2023-04-04T13:02:39.732Z,25.70
2023-04-04T13:05:08.933Z,28.10
2023-04-04T13:07:39.946Z,27.10
2023-04-04T13:10:08.343Z,24.50
2023-04-04T13:12:59.663Z,26.70
2023-04-04T13:15:52.192Z,26.20
2023-04-04T13:18:25.578Z,24.40
2023-04-04T13:20:55.137Z,25.40
2023-04-04T13:23:22.902Z,26.50
2023-04-04T13:25:50.715Z,26.20
2023-04-04T13:28:18.094Z,25.60
2023-04-04T13:30:45.324Z,26.50
2023-04-04T13:33:12.876Z,26.30
2023-04-04T13:35:43.014Z,24.80
2023-04-04T13:38:11.270Z,25.10
2023-04-04T13:40:38.754Z,26.80
2023-04-04T13:43:05.927Z,27.00
2023-04-04T13:45:34.530Z,26.60
2023-04-04T13:48:02.883Z,27.60
2023-04-04T13:50:33.024Z,26.20
2023-04-04T13:53:00.239Z,26.60
2023-04-04T13:55:28.396Z,25.90
2023-04-04T13:57:55.574Z,26.50
2023-04-04T14:00:23.702Z,26.10
2023-04-04T14:02:51.098Z,26.30
2023-04-04T14:05:19.378Z,26.10
2023-04-04T14:07:46.928Z,26.80
2023-04-04T14:10:14.388Z,27.20
2023-04-04T14:12:41.871Z,26.30
2023-04-04T14:15:09.983Z,26.90
2023-04-04T14:17:37.483Z,27.40
2023-04-04T14:20:05.831Z,26.50
2023-04-04T14:22:33.235Z,25.50
2023-04-04T14:25:00.481Z,25.20
2023-04-04T14:27:27.751Z,26.30
2023-04-04T14:29:54.900Z,25.30
2023-04-04T14:32:22.049Z,24.40
2023-04-04T14:34:49.290Z,23.00
2023-04-04T14:37:16.480Z,25.80
2023-04-04T14:39:43.783Z,24.10
2023-04-04T14:42:11.125Z,24.90
2023-04-04T14:44:38.331Z,24.80
2023-04-04T14:47:05.721Z,25.10
2023-04-04T14:49:33.166Z,24.50
2023-04-04T14:52:00.351Z,24.50
2023-04-04T14:54:27.510Z,24.50
2023-04-04T14:56:54.675Z,23.80
2023-04-04T14:59:21.855Z,24.20
2023-04-04T15:01:49.636Z,24.20
2023-04-04T15:04:16.928Z,23.30
2023-04-04T15:06:44.287Z,24.30
2023-04-04T15:09:11.697Z,24.10
2023-04-04T15:11:39.789Z,24.20
2023-04-04T15:14:07.148Z,24.50
2023-04-04T15:16:34.378Z,25.10
2023-04-04T15:19:02.116Z,23.60
2023-04-04T15:21:29.307Z,24.60
2023-04-04T15:23:56.502Z,23.60
2023-04-04T15:26:23.935Z,24.20
2023-04-04T15:28:51.069Z,24.20
2023-04-04T15:31:18.336Z,24.30
2023-04-04T15:33:45.489Z,24.70
2023-04-04T15:36:12.694Z,25.90
2023-04-04T15:38:40.393Z,25.10
2023-04-04T15:41:10.420Z,24.80
2023-04-04T15:43:38.259Z,24.60
2023-04-04T15:46:05.856Z,24.50
2023-04-04T15:48:33.081Z,23.80
2023-04-04T15:51:02.350Z,23.30
2023-04-04T15:53:31.341Z,25.50
2023-04-04T15:55:59.861Z,26.50
2023-04-04T15:58:27.026Z,27.50
2023-04-04T16:00:58.314Z,27.10
2023-04-04T16:03:25.682Z,26.60
2023-04-04T16:05:53.090Z,24.70
2023-04-04T16:08:20.345Z,23.90
2023-04-04T16:10:47.694Z,25.80
2023-04-04T16:13:14.966Z,26.50
2023-04-04T16:15:42.184Z,25.90
2023-04-04T16:18:09.590Z,27.70
2023-04-04T16:20:36.825Z,27.80
2023-04-04T16:27:59.067Z,30.30
2023-04-04T16:30:26.422Z,29.70
2023-04-04T16:32:53.593Z,30.20
2023-04-04T16:35:20.851Z,31.20
2023-04-04T16:37:48.173Z,30.70
2023-04-04T16:40:15.707Z,29.90
2023-04-04T16:42:43.000Z,29.90
2023-04-04T16:45:11.147Z,32.70
2023-04-04T16:47:38.464Z,32.00
2023-04-04T16:50:07.462Z,33.00
2023-04-04T16:52:34.765Z,32.70
2023-04-04T16:55:01.978Z,34.80
2023-04-04T16:57:29.107Z,35.50
2023-04-04T16:59:56.456Z,37.90
2023-04-04T17:02:23.727Z,37.10
2023-04-04T17:04:51.398Z,36.70
2023-04-04T17:07:20.320Z,36.90
2023-04-04T17:09:48.746Z,37.40
2023-04-04T17:12:16.190Z,38.40
2023-04-04T17:14:43.857Z,39.30
2023-04-04T17:17:11.380Z,39.00
2023-04-04T17:19:41.288Z,39.60
2023-04-04T17:22:08.495Z,39.00
2023-04-04T17:24:35.630Z,40.90
2023-04-04T17:29:30.363Z,40.00
2023-04-04T17:31:58.088Z,40.70
2023-04-04T17:34:26.368Z,41.40
2023-04-04T17:36:54.252Z,42.20
2023-04-04T17:39:21.888Z,42.50
2023-04-04T17:41:49.501Z,43.00
2023-04-04T17:44:20.336Z,43.10
2023-04-04T17:46:47.662Z,41.10
2023-04-04T17:49:15.033Z,42.50
2023-04-04T17:51:42.181Z,44.10
2023-04-04T17:54:09.302Z,43.90
2023-04-04T17:56:36.470Z,44.80
2023-04-04T17:59:03.687Z,45.00
2023-04-04T18:01:30.958Z,45.60
2023-04-04T18:03:58.411Z,46.70
2023-04-04T18:06:25.701Z,46.50
2023-04-04T18:08:52.821Z,47.00
2023-04-04T18:11:20.277Z,47.80
2023-04-04T18:13:47.529Z,47.60
2023-04-04T18:16:14.679Z,47.70
2023-04-04T18:18:41.871Z,47.60
2023-04-04T18:21:09.198Z,48.10
2023-04-04T18:23:36.678Z,48.90
2023-04-04T18:26:07.071Z,50.00
2023-04-04T18:28:34.534Z,50.00
2023-04-04T18:31:01.809Z,49.00
2023-04-04T18:33:29.246Z,47.10
2023-04-04T18:35:56.754Z,47.90
2023-04-04T18:38:24.182Z,49.60
2023-04-04T18:40:52.430Z,49.70
2023-04-04T18:43:20.434Z,49.90
2023-04-04T18:45:47.900Z,50.80
2023-04-04T18:48:15.107Z,50.80
2023-04-04T18:50:42.389Z,50.40
2023-04-04T18:53:10.015Z,51.30
2023-04-04T18:55:37.300Z,52.10
2023-04-04T18:58:04.387Z,51.60
2023-04-04T19:00:31.716Z,51.20
2023-04-04T19:02:58.975Z,52.20
2023-04-04T19:05:31.900Z,52.80
2023-04-04T19:08:01.455Z,52.90
2023-04-04T19:10:29.847Z,53.60
2023-04-04T19:12:56.967Z,53.20
2023-04-04T19:15:24.129Z,53.00
2023-04-04T19:17:51.369Z,53.40
2023-04-04T19:20:19.056Z,54.20
2023-04-04T19:22:46.798Z,54.60
2023-04-04T19:25:14.339Z,54.60
2023-04-04T19:27:41.608Z,54.90
2023-04-04T19:30:41.176Z,55.90
2023-04-04T19:33:21.020Z,55.70
2023-04-04T19:35:56.556Z,55.00
2023-04-04T19:38:28.642Z,55.20
2023-04-04T19:41:08.478Z,56.30
2023-04-04T19:43:37.464Z,56.20
2023-04-04T19:46:26.499Z,55.90
2023-04-04T19:48:58.227Z,56.60
2023-04-04T19:51:25.290Z,56.40
2023-04-04T19:53:56.781Z,56.60
2023-04-04T19:56:26.716Z,56.60
2023-04-04T19:58:54.672Z,56.60
2023-04-04T20:01:30.514Z,57.10
2023-04-04T20:04:09.778Z,57.20
2023-04-04T20:06:38.320Z,57.50
2023-04-04T20:09:25.384Z,57.50
2023-04-04T20:11:53.061Z,57.40
2023-04-04T20:14:21.172Z,58.30
2023-04-04T20:16:50.488Z,58.60
2023-04-04T20:19:20.866Z,58.10
2023-04-04T20:21:48.698Z,58.30
2023-04-04T20:24:19.085Z,58.40
2023-04-04T20:26:55.797Z,58.70
2023-04-04T20:29:46.622Z,58.90
2023-04-04T20:32:14.854Z,58.10
2023-04-04T20:34:47.161Z,58.50
2023-04-04T20:37:25.905Z,58.60
2023-04-04T20:39:58.991Z,58.90
2023-04-04T20:42:39.246Z,59.90
2023-04-04T20:45:09.370Z,59.60
2023-04-04T20:47:56.003Z,59.90
2023-04-04T20:50:23.386Z,59.90
2023-04-04T20:52:52.435Z,60.00
2023-04-04T20:55:21.758Z,59.90
2023-04-04T21:00:30.664Z,59.90
2023-04-04T21:03:30.300Z,60.10
2023-04-04T21:06:15.143Z,61.10
2023-04-04T21:08:51.042Z,61.00
2023-04-04T21:11:28.290Z,61.30
2023-04-04T21:13:56.718Z,60.90
2023-04-04T21:16:27.741Z,60.90
2023-04-04T21:19:00.061Z,62.70
2023-04-04T21:21:28.159Z,61.80
2023-04-04T21:23:58.779Z,62.20
2023-04-04T21:26:31.703Z,62.80
2023-04-04T21:29:09.907Z,63.10
2023-04-04T21:31:41.666Z,63.40
2023-04-04T21:34:20.140Z,63.90
2023-04-04T21:36:49.536Z,63.60
2023-04-04T21:39:26.489Z,64.00
2023-04-04T21:41:57.609Z,64.20
2023-04-04T21:44:26.036Z,63.90
2023-04-04T21:46:53.995Z,62.70
2023-04-04T21:49:21.904Z,63.20
2023-04-04T21:51:49.564Z,64.50
2023-04-04T21:54:16.803Z,64.10
2023-04-04T21:56:43.890Z,64.90
2023-04-04T21:59:11.049Z,64.60
2023-04-04T22:01:39.257Z,64.70
2023-04-04T22:04:06.527Z,65.50
2023-04-04T22:06:33.798Z,65.30
2023-04-04T22:11:29.528Z,66.40
2023-04-04T22:13:56.864Z,66.80
2023-04-04T22:16:24.067Z,66.20
2023-04-04T22:18:51.172Z,66.30
2023-04-04T22:21:21.817Z,66.10
2023-04-04T22:23:49.047Z,66.90
2023-04-04T22:26:16.209Z,66.30
2023-04-04T22:28:43.907Z,66.40
2023-04-04T22:31:11.649Z,67.30
2023-04-04T22:33:38.828Z,67.10
2023-04-04T22:36:06.643Z,67.50
2023-04-04T22:38:34.171Z,67.10
2023-04-04T22:41:01.347Z,67.00
2023-04-04T22:43:28.581Z,67.40
2023-04-04T22:45:55.790Z,68.40
2023-04-04T22:48:23.141Z,68.90
2023-04-04T22:50:53.520Z,69.10
2023-04-04T22:53:20.651Z,68.80
2023-04-04T22:55:48.493Z,68.50
2023-04-04T22:58:15.793Z,68.50
2023-04-04T23:00:43.291Z,68.00
2023-04-04T23:05:38.085Z,85.80
2023-04-04T23:08:05.592Z,90.90
2023-04-04T23:10:32.867Z,91.40
2023-04-04T23:13:00.055Z,91.80
2023-04-04T23:15:27.365Z,94.80
2023-04-04T23:17:54.964Z,75.10
2023-04-04T23:20:22.152Z,70.20
2023-04-04T23:22:49.326Z,68.60
2023-04-04T23:25:16.548Z,68.70
2023-04-04T23:27:43.964Z,68.40
2023-04-04T23:30:11.727Z,68.80
2023-04-04T23:32:38.895Z,68.90
2023-04-04T23:35:06.480Z,69.30
2023-04-04T23:37:33.794Z,76.90
2023-04-04T23:40:00.931Z,73.40
2023-04-04T23:42:28.101Z,72.40
2023-04-04T23:44:55.474Z,72.20
2023-04-04T23:47:22.619Z,77.90
2023-04-04T23:49:49.845Z,80.70
2023-04-04T23:52:17.159Z,72.80
2023-04-04T23:54:44.290Z,70.30
2023-04-04T23:57:11.516Z,70.10
2023-04-04T23:59:38.716Z,69.90
